Time;durP1;ratioP1;P1;durP2;ratioP2;P2;SDS_P1;SDS_P2;PMS_P1;PMS_P2;Temp;Humidity;BMP_temperature;BMP_pressure;BME280_temperature;BME280_humidity;BME280_pressure;Samples;Min_cycle;Max_cycle;Signal;HPM_P1;HPM_P2
2022/05/03 00:00:06;;;;;;;2.10;2.00;;;24.00;53.30;;;;;;5076735;28;20432;-86
2022/05/03 00:02:44;;;;;;;2.53;1.70;;;23.90;53.20;;;;;;5076717;28;20488;-85
2022/05/03 00:05:16;;;;;;;1.90;1.80;;;24.00;53.30;;;;;;5076391;28;20471;-85
2022/05/03 00:07:47;;;;;;;1.80;1.70;;;23.90;53.30;;;;;;5076840;28;20444;-86
2022/05/03 00:10:20;;;;;;;2.07;1.97;;;23.90;53.20;;;;;;5076328;28;20445;-85
2022/05/03 00:12:53;;;;;;;2.20;2.10;;;23.90;53.30;;;;;;5076280;28;20433;-85
2022/05/03 00:15:22;;;;;;;2.30;2.17;;;23.90;53.40;;;;;;5076267;28;20429;-88
2022/05/03 00:17:49;;;;;;;2.60;2.40;;;23.90;53.50;;;;;;5076171;28;20445;-85
2022/05/03 00:20:17;;;;;;;2.83;2.73;;;23.90;53.50;;;;;;5076246;28;20467;-90
2022/05/03 00:22:44;;;;;;;2.60;2.40;;;23.90;53.60;;;;;;5076223;28;20483;-85
2022/05/03 00:25:11;;;;;;;2.80;2.60;;;23.90;53.70;;;;;;5076275;28;20441;-85
2022/05/03 00:27:38;;;;;;;2.43;2.30;;;23.90;53.70;;;;;;5076032;28;21041;-86
2022/05/03 00:30:08;;;;;;;2.40;2.20;;;23.90;53.70;;;;;;5076221;28;20441;-85
2022/05/03 00:32:35;;;;;;;2.87;2.67;;;23.90;53.70;;;;;;5075942;28;20441;-85
2022/05/03 00:35:04;;;;;;;3.47;3.27;;;23.90;53.80;;;;;;5076078;28;20455;-86
2022/05/03 00:37:31;;;;;;;2.50;2.40;;;23.80;53.80;;;;;;5076067;28;20448;-90
2022/05/03 00:39:57;;;;;;;2.40;2.30;;;23.80;53.90;;;;;;5076007;28;20447;-86
2022/05/03 00:42:27;;;;;;;2.53;2.43;;;23.90;54.00;;;;;;5076038;28;20846;-85
2022/05/03 00:45:10;;;;;;;2.60;2.40;;;23.90;53.90;;;;;;5076162;28;20449;-90
2022/05/03 00:47:51;;;;;;;2.50;2.30;;;23.90;54.10;;;;;;5075877;28;20539;-85
2022/05/03 00:50:38;;;;;;;2.33;2.17;;;23.90;54.00;;;;;;5075727;28;20912;-86
2022/05/03 00:53:11;;;;;;;2.37;2.27;;;23.90;54.10;;;;;;5075840;28;20511;-86
2022/05/03 00:56:03;;;;;;;2.00;1.90;;;23.80;54.10;;;;;;5075664;28;20444;-85
2022/05/03 00:58:46;;;;;;;2.63;1.70;;;23.80;54.10;;;;;;5075677;28;20432;-85
2022/05/03 01:01:26;;;;;;;2.10;2.00;;;23.80;54.10;;;;;;5075568;28;20459;-87
2022/05/03 01:04:04;;;;;;;1.80;1.70;;;23.80;54.10;;;;;;5075341;28;20986;-85
2022/05/03 01:06:36;;;;;;;1.40;1.30;;;23.80;54.20;;;;;;5075306;28;20518;-86
2022/05/03 01:09:06;;;;;;;1.70;1.60;;;23.80;54.20;;;;;;5075491;28;20436;-86
2022/05/03 01:11:46;;;;;;;2.00;1.90;;;23.80;54.20;;;;;;5075253;28;20444;-85
2022/05/03 01:14:30;;;;;;;2.03;1.90;;;23.80;54.80;;;;;;5075340;28;20787;-85
2022/05/03 01:17:03;;;;;;;2.00;1.90;;;23.80;54.20;;;;;;5075498;28;20440;-85
2022/05/03 01:19:57;;;;;;;1.80;1.70;;;23.80;54.20;;;;;;5075340;28;20467;-85
2022/05/03 01:22:56;;;;;;;1.80;1.70;;;23.80;54.20;;;;;;5074934;28;20476;-85
2022/05/03 01:25:43;;;;;;;1.80;1.70;;;23.80;54.20;;;;;;5074968;28;20447;-85
2022/05/03 01:28:22;;;;;;;2.37;1.70;;;23.80;54.40;;;;;;5075344;28;20483;-85
2022/05/03 01:30:52;;;;;;;1.80;1.70;;;23.80;54.40;;;;;;5075232;28;20429;-85
2022/05/03 01:33:25;;;;;;;1.93;1.83;;;23.80;54.40;;;;;;5075101;28;20801;-86
2022/05/03 01:35:58;;;;;;;1.80;1.70;;;23.80;55.00;;;;;;5075037;28;20447;-86
2022/05/03 01:38:35;;;;;;;1.97;1.87;;;23.80;54.40;;;;;;5075148;28;20417;-85
2022/05/03 01:41:14;;;;;;;1.63;1.53;;;23.90;54.40;;;;;;5074898;28;20433;-85
2022/05/03 01:44:01;;;;;;;1.37;1.27;;;23.80;54.40;;;;;;5074472;28;20484;-86
2022/05/03 01:46:32;;;;;;;1.87;1.77;;;23.80;54.40;;;;;;5074693;28;20443;-86
2022/05/03 01:52:17;;;;;;;1.53;1.43;;;23.80;54.40;;;;;;5074617;28;20432;-87
2022/05/03 01:55:09;;;;;;;1.90;1.80;;;23.80;54.40;;;;;;5074521;28;20449;-86
2022/05/03 01:57:47;;;;;;;1.97;1.87;;;23.80;54.40;;;;;;5074339;28;20440;-85
2022/05/03 02:00:14;;;;;;;1.50;1.40;;;23.80;54.40;;;;;;5074699;28;20486;-85
2022/05/03 02:03:02;;;;;;;1.77;1.67;;;23.70;54.30;;;;;;5074116;28;20483;-90
2022/05/03 02:05:51;;;;;;;1.70;1.60;;;23.80;54.30;;;;;;5074178;28;20477;-86
2022/05/03 02:08:20;;;;;;;1.50;1.40;;;23.80;54.40;;;;;;5074475;28;20433;-85
2022/05/03 02:10:58;;;;;;;1.70;1.60;;;23.70;54.30;;;;;;5074137;28;20444;-90
2022/05/03 02:16:45;;;;;;;1.60;1.50;;;23.80;54.30;;;;;;5074742;28;20463;-85
2022/05/03 02:19:26;;;;;;;1.40;1.30;;;23.70;54.30;;;;;;5074163;28;20468;-90
2022/05/03 02:22:02;;;;;;;1.73;1.63;;;23.70;54.20;;;;;;5074174;28;20433;-86
2022/05/03 02:24:36;;;;;;;1.80;1.70;;;23.70;54.20;;;;;;5074032;28;20945;-86
2022/05/03 02:27:10;;;;;;;1.53;1.43;;;23.70;54.20;;;;;;5074664;28;20494;-85
2022/05/03 02:29:46;;;;;;;1.63;1.53;;;23.70;54.20;;;;;;5074214;28;20425;-87
2022/05/03 02:32:17;;;;;;;1.60;1.50;;;23.70;54.20;;;;;;5073541;28;20445;-87
2022/05/03 02:34:48;;;;;;;1.43;1.33;;;23.70;54.20;;;;;;5073793;28;20448;-89
2022/05/03 02:37:18;;;;;;;1.43;1.33;;;23.70;54.20;;;;;;5074006;28;20444;-88
2022/05/03 02:40:00;;;;;;;1.60;1.50;;;23.70;54.20;;;;;;5074092;28;20445;-87
2022/05/03 02:42:28;;;;;;;1.60;1.50;;;23.70;54.10;;;;;;5073758;28;20477;-85
2022/05/03 02:44:56;;;;;;;1.70;1.60;;;23.70;54.20;;;;;;5073863;28;20449;-87
2022/05/03 02:47:32;;;;;;;1.80;1.70;;;23.70;54.10;;;;;;5073882;28;20441;-88
2022/05/03 02:50:10;;;;;;;1.50;1.40;;;23.70;54.20;;;;;;5073834;28;20471;-86
2022/05/03 02:53:03;;;;;;;1.67;1.57;;;23.70;54.20;;;;;;5073674;28;20919;-89
2022/05/03 02:55:44;;;;;;;1.77;1.23;;;23.70;54.20;;;;;;5072948;28;20445;-85
2022/05/03 02:58:18;;;;;;;1.60;1.50;;;23.70;54.90;;;;;;5073769;28;20507;-89
2022/05/03 03:04:03;;;;;;;1.70;1.60;;;23.70;54.10;;;;;;5073483;28;20479;-85
2022/05/03 03:06:34;;;;;;;1.40;1.30;;;23.70;54.10;;;;;;5073236;28;20468;-85
2022/05/03 03:09:03;;;;;;;1.80;1.70;;;23.60;54.10;;;;;;5073474;28;20431;-85
2022/05/03 03:11:41;;;;;;;1.50;1.30;;;23.70;54.20;;;;;;5073351;28;20447;-86
2022/05/03 03:14:15;;;;;;;1.40;1.30;;;23.70;54.10;;;;;;5073555;28;20463;-86
2022/05/03 03:16:45;;;;;;;1.40;1.30;;;23.70;54.10;;;;;;5073431;28;20439;-85
2022/05/03 03:19:35;;;;;;;1.50;1.40;;;23.70;54.10;;;;;;5072975;28;20465;-86
2022/05/03 03:22:07;;;;;;;1.70;1.60;;;23.70;54.10;;;;;;5073452;28;20428;-89
2022/05/03 03:24:37;;;;;;;1.50;1.40;;;23.70;54.10;;;;;;5073421;28;20484;-85
2022/05/03 03:27:06;;;;;;;1.47;1.37;;;23.70;54.10;;;;;;5073234;28;20445;-85
2022/05/03 03:29:34;;;;;;;1.40;1.30;;;23.70;54.10;;;;;;5073331;28;20529;-86
2022/05/03 03:32:03;;;;;;;1.53;1.43;;;23.70;54.60;;;;;;5073490;28;20453;-89
2022/05/03 03:34:30;;;;;;;1.43;1.33;;;23.60;53.90;;;;;;5073319;28;20956;-85
2022/05/03 03:37:01;;;;;;;1.40;1.30;;;23.70;54.00;;;;;;5072833;28;20444;-86
2022/05/03 03:39:30;;;;;;;1.40;1.30;;;23.70;54.00;;;;;;5073433;28;20519;-86
2022/05/03 03:41:57;;;;;;;1.40;1.30;;;23.60;53.90;;;;;;5073024;28;20861;-85
2022/05/03 03:44:25;;;;;;;3.87;1.50;;;23.60;53.80;;;;;;5072931;28;20476;-85
2022/05/03 03:46:52;;;;;;;1.40;1.30;;;23.60;53.90;;;;;;5072964;28;20523;-86
2022/05/03 03:49:18;;;;;;;1.47;1.37;;;23.60;53.90;;;;;;5073731;28;20463;-85
2022/05/03 03:51:46;;;;;;;2.03;1.03;;;23.60;53.90;;;;;;5073035;28;20432;-85
2022/05/03 03:54:15;;;;;;;1.57;1.47;;;23.60;53.90;;;;;;5072781;28;20951;-86
2022/05/03 03:56:45;;;;;;;1.30;1.20;;;23.60;53.90;;;;;;5073160;28;20443;-89
2022/05/03 03:59:13;;;;;;;2.03;1.30;;;23.60;53.90;;;;;;5072866;28;20444;-86
2022/05/03 04:01:41;;;;;;;1.87;1.63;;;23.60;53.90;;;;;;5072793;28;20443;-85
2022/05/03 04:04:11;;;;;;;1.83;1.73;;;23.60;53.90;;;;;;5073035;28;20491;-84
2022/05/03 04:06:38;;;;;;;1.33;1.23;;;23.60;53.90;;;;;;5075815;28;20521;-85
2022/05/03 04:09:05;;;;;;;1.47;1.37;;;23.60;53.90;;;;;;5076569;28;20447;-84
2022/05/03 04:11:44;;;;;;;1.40;1.30;;;23.60;53.90;;;;;;5076484;28;21005;-89
2022/05/03 04:14:11;;;;;;;1.53;1.43;;;23.60;53.90;;;;;;5076462;28;20505;-84
2022/05/03 04:16:38;;;;;;;1.10;1.00;;;23.60;53.90;;;;;;5076490;28;20437;-85
2022/05/03 04:19:05;;;;;;;1.70;1.30;;;23.60;53.80;;;;;;5076218;28;20460;-85
2022/05/03 04:21:31;;;;;;;1.50;1.40;;;23.60;53.80;;;;;;5076224;28;20445;-84
2022/05/03 04:23:59;;;;;;;1.30;1.20;;;23.60;53.80;;;;;;5076150;28;20490;-84
2022/05/03 04:26:25;;;;;;;1.20;1.10;;;23.60;53.80;;;;;;5075997;28;20444;-85
2022/05/03 04:28:57;;;;;;;1.70;1.60;;;23.50;53.80;;;;;;5076385;28;20439;-85
2022/05/03 04:31:26;;;;;;;1.23;1.13;;;23.60;53.80;;;;;;5076173;28;20487;-84
2022/05/03 04:33:53;;;;;;;1.33;1.23;;;23.60;53.90;;;;;;5076070;28;20993;-86
2022/05/03 04:36:20;;;;;;;1.37;1.23;;;23.60;53.80;;;;;;5075925;28;20449;-84
2022/05/03 04:38:47;;;;;;;1.23;1.13;;;23.60;53.70;;;;;;5076063;28;20437;-85
2022/05/03 04:41:14;;;;;;;1.57;1.47;;;23.60;53.70;;;;;;5075996;28;20932;-85
2022/05/03 04:43:41;;;;;;;1.27;1.17;;;23.60;53.70;;;;;;5075710;28;20480;-84
2022/05/03 04:46:09;;;;;;;1.37;1.27;;;23.60;53.70;;;;;;5076142;28;20441;-87
2022/05/03 04:48:36;;;;;;;1.30;1.20;;;23.50;53.70;;;;;;5075676;28;20441;-85
2022/05/03 04:51:03;;;;;;;1.30;1.20;;;23.50;53.70;;;;;;5075760;28;20951;-88
2022/05/03 04:53:30;;;;;;;1.60;1.50;;;23.60;53.70;;;;;;5075786;28;20955;-87
2022/05/03 04:55:57;;;;;;;1.50;1.40;;;23.60;53.70;;;;;;5075951;28;20448;-84
2022/05/03 04:58:24;;;;;;;1.50;1.40;;;23.50;53.60;;;;;;5075800;28;20539;-85
2022/05/03 05:00:50;;;;;;;1.27;1.17;;;23.60;53.70;;;;;;5075493;28;20433;-86
2022/05/03 05:03:19;;;;;;;1.23;1.13;;;23.60;53.60;;;;;;5075756;28;20488;-84
2022/05/03 05:05:45;;;;;;;1.40;1.30;;;23.60;53.60;;;;;;5075344;28;20568;-84
2022/05/03 05:08:12;;;;;;;1.20;1.10;;;23.60;53.60;;;;;;5075422;28;20444;-84
2022/05/03 05:10:39;;;;;;;1.47;1.37;;;23.60;53.60;;;;;;5075965;28;20451;-88
2022/05/03 05:13:06;;;;;;;1.53;1.43;;;23.60;53.50;;;;;;5075338;28;20441;-88
2022/05/03 05:15:33;;;;;;;1.40;1.30;;;23.60;53.50;;;;;;5075315;28;20441;-84
2022/05/03 05:18:00;;;;;;;2.20;1.20;;;23.60;53.50;;;;;;5074126;28;20439;-86
2022/05/03 05:20:28;;;;;;;1.60;1.10;;;23.60;53.40;;;;;;5075289;28;20981;-85
2022/05/03 05:22:55;;;;;;;1.30;1.20;;;23.60;53.40;;;;;;5075179;28;20528;-84
2022/05/03 05:25:22;;;;;;;1.23;1.13;;;23.60;53.40;;;;;;5075221;28;20955;-85
2022/05/03 05:27:49;;;;;;;1.30;1.20;;;23.60;53.40;;;;;;5075131;28;20440;-85
2022/05/03 05:30:15;;;;;;;1.17;1.03;;;23.60;53.40;;;;;;5075168;28;20445;-84
2022/05/03 05:32:42;;;;;;;1.40;1.20;;;23.60;53.40;;;;;;5075099;28;20445;-84
2022/05/03 05:35:10;;;;;;;1.50;1.20;;;23.60;53.40;;;;;;5075016;28;20445;-84
2022/05/03 05:37:38;;;;;;;2.20;1.20;;;23.60;53.40;;;;;;5075105;28;20437;-85
2022/05/03 05:40:07;;;;;;;1.40;1.30;;;23.60;53.30;;;;;;5074902;28;20850;-88
2022/05/03 05:42:33;;;;;;;2.13;1.70;;;23.50;53.40;;;;;;5077809;28;20441;-85
2022/05/03 05:45:00;;;;;;;2.03;1.83;;;23.50;52.50;;;;;;5076928;28;20496;-86
2022/05/03 05:47:27;;;;;;;1.20;1.10;;;23.50;53.00;;;;;;5074575;28;20451;-87
2022/05/03 05:49:54;;;;;;;1.37;1.27;;;23.50;53.30;;;;;;5075114;28;20468;-87
2022/05/03 05:55:08;;;;;;;1.23;1.13;;;23.60;53.60;;;;;;5074833;28;20790;-88
2022/05/03 05:57:35;;;;;;;1.93;1.73;;;23.50;53.60;;;;;;5074205;28;20445;-88
2022/05/03 06:00:03;;;;;;;1.53;1.43;;;23.50;53.80;;;;;;5074130;28;20944;-87
2022/05/03 06:02:29;;;;;;;1.50;1.30;;;23.60;54.00;;;;;;5074215;28;20449;-86
2022/05/03 06:04:56;;;;;;;1.20;1.10;;;23.60;54.00;;;;;;5073888;28;20494;-87
2022/05/03 06:07:23;;;;;;;1.40;1.30;;;23.60;54.10;;;;;;5074914;28;20481;-87
2022/05/03 06:09:50;;;;;;;1.40;1.30;;;23.60;54.10;;;;;;5074528;28;20445;-87
2022/05/03 06:12:18;;;;;;;1.03;0.93;;;23.60;54.20;;;;;;5074008;28;20916;-86
2022/05/03 06:14:45;;;;;;;1.40;1.10;;;23.60;54.30;;;;;;5074385;28;20451;-87
2022/05/03 06:17:12;;;;;;;1.40;1.30;;;23.60;54.20;;;;;;5074604;28;20483;-87
2022/05/03 06:19:39;;;;;;;1.60;1.50;;;23.60;54.30;;;;;;5074454;28;20465;-88
2022/05/03 06:22:06;;;;;;;1.10;1.00;;;23.60;54.30;;;;;;5074609;28;20880;-87
2022/05/03 06:24:32;;;;;;;1.20;1.10;;;23.70;54.20;;;;;;5073812;28;20585;-87
2022/05/03 06:26:59;;;;;;;1.10;1.00;;;23.70;54.20;;;;;;5074039;28;20441;-88
2022/05/03 06:29:27;;;;;;;1.80;1.70;;;23.70;53.80;;;;;;5074009;28;20471;-85
2022/05/03 06:31:54;;;;;;;2.00;1.80;;;23.60;53.00;;;;;;5073902;28;20441;-84
2022/05/03 06:34:21;;;;;;;2.00;1.63;;;23.60;51.90;;;;;;5073643;28;20445;-85
2022/05/03 06:36:52;;;;;;;2.70;1.90;;;23.50;51.50;;;;;;5074047;28;20439;-93
2022/05/03 06:39:19;;;;;;;2.13;1.30;;;23.50;51.20;;;;;;5074870;28;20434;-83
2022/05/03 06:41:45;;;;;;;1.70;1.60;;;23.50;51.10;;;;;;5074126;28;20792;-84
2022/05/03 06:44:13;;;;;;;1.47;1.37;;;23.50;51.10;;;;;;5073832;28;20484;-85
2022/05/03 06:46:41;;;;;;;2.30;1.40;;;23.50;51.20;;;;;;5073840;28;20773;-81
2022/05/03 06:49:10;;;;;;;2.07;1.50;;;23.50;51.10;;;;;;5073339;28;20532;-92
2022/05/03 06:51:38;;;;;;;2.30;1.63;;;23.50;51.00;;;;;;5073744;28;20447;-83
2022/05/03 06:54:05;;;;;;;1.40;1.30;;;23.50;51.10;;;;;;5073875;28;20483;-82
2022/05/03 06:56:35;;;;;;;1.30;1.20;;;23.50;50.90;;;;;;5073660;28;20445;-82
2022/05/03 06:59:04;;;;;;;4.50;1.40;;;23.50;51.40;;;;;;5073736;28;20447;-89
2022/05/03 07:01:38;;;;;;;2.00;1.50;;;23.50;52.30;;;;;;5069962;28;20481;-87
2022/05/03 07:04:06;;;;;;;1.70;1.60;;;23.60;52.20;;;;;;5081624;28;21025;-87
2022/05/03 07:06:33;;;;;;;1.40;1.30;;;23.60;52.00;;;;;;5073187;28;20473;-86
2022/05/03 07:08:59;;;;;;;1.53;1.43;;;23.60;52.00;;;;;;5073138;28;20451;-88
2022/05/03 07:11:26;;;;;;;1.47;1.20;;;23.60;52.00;;;;;;5073677;28;20445;-86
2022/05/03 07:13:53;;;;;;;1.63;1.53;;;23.60;52.30;;;;;;5073340;28;20540;-85
2022/05/03 07:16:20;;;;;;;1.10;1.00;;;23.60;51.40;;;;;;5068974;28;20458;-86
2022/05/03 07:24:16;;;;;;;1.77;1.40;;;23.60;50.90;;;;;;5072985;28;20474;-89
2022/05/03 07:26:43;;;;;;;1.70;1.40;;;23.60;51.00;;;;;;5073413;28;20448;-88
2022/05/03 07:29:10;;;;;;;1.20;1.10;;;23.70;51.20;;;;;;5073270;28;20457;-90
2022/05/03 07:31:41;;;;;;;1.63;1.30;;;23.70;51.20;;;;;;5073076;28;20544;-87
2022/05/03 07:34:08;;;;;;;1.50;1.20;;;23.70;51.20;;;;;;5073175;28;20951;-85
2022/05/03 07:36:36;;;;;;;1.00;0.90;;;23.70;51.30;;;;;;5072362;28;20521;-85
2022/05/03 07:39:05;;;;;;;1.57;1.10;;;23.70;51.30;;;;;;5073059;28;20440;-84
2022/05/03 07:41:32;;;;;;;2.23;1.40;;;23.70;51.20;;;;;;5076387;28;20452;-84
2022/05/03 07:43:59;;;;;;;2.67;1.33;;;23.80;51.10;;;;;;5076843;28;20634;-84
2022/05/03 07:46:26;;;;;;;1.50;1.30;;;23.80;50.80;;;;;;5077125;28;20441;-84
2022/05/03 07:48:54;;;;;;;1.30;1.20;;;23.80;50.90;;;;;;5077038;28;20464;-85
2022/05/03 07:51:21;;;;;;;1.80;1.50;;;23.80;51.00;;;;;;5076910;28;20494;-85
2022/05/03 07:53:49;;;;;;;5.07;1.27;;;23.70;50.60;;;;;;5076431;28;20912;-84
2022/05/03 07:56:16;;;;;;;1.60;1.50;;;23.70;51.10;;;;;;5076549;28;20437;-82
2022/05/03 07:58:43;;;;;;;1.57;1.10;;;23.80;51.80;;;;;;5076171;28;20477;-82
2022/05/03 08:01:10;;;;;;;1.90;1.33;;;23.80;51.50;;;;;;5076501;28;20443;-85
2022/05/03 08:03:37;;;;;;;1.53;1.20;;;23.80;52.00;;;;;;5075646;28;20449;-85
2022/05/03 08:06:03;;;;;;;1.10;1.00;;;23.80;52.50;;;;;;5075999;28;20472;-84
2022/05/03 08:08:30;;;;;;;1.20;1.10;;;23.80;52.60;;;;;;5075382;28;20451;-83
2022/05/03 08:10:58;;;;;;;1.30;1.10;;;23.80;52.70;;;;;;5076808;28;20489;-81
2022/05/03 08:13:25;;;;;;;1.30;1.20;;;23.80;52.80;;;;;;5096485;28;21034;-80
2022/05/03 08:15:52;;;;;;;1.57;1.00;;;23.80;52.80;;;;;;5096512;28;20443;-84
2022/05/03 08:18:19;;;;;;;2.70;0.90;;;23.80;52.90;;;;;;5078597;28;20585;-82
2022/05/03 08:20:46;;;;;;;2.83;1.47;;;23.90;52.90;;;;;;5076084;28;20448;-82
2022/05/03 08:23:13;;;;;;;1.33;1.00;;;23.90;53.00;;;;;;5075236;28;20437;-83
2022/05/03 08:25:39;;;;;;;3.50;1.40;;;23.90;53.00;;;;;;5075787;28;20942;-82
2022/05/03 08:28:08;;;;;;;1.40;1.00;;;23.90;52.10;;;;;;5083573;28;20472;-82
2022/05/03 08:30:35;;;;;;;1.13;0.90;;;23.90;52.70;;;;;;5078093;28;20536;-82
2022/05/03 08:33:02;;;;;;;1.57;1.00;;;23.90;53.00;;;;;;5075703;28;20443;-82
2022/05/03 08:35:29;;;;;;;1.97;1.20;;;23.90;53.10;;;;;;5075824;28;20444;-82
2022/05/03 08:43:26;;;;;;;2.93;1.00;;;23.90;53.20;;;;;;5075259;28;20510;-85
2022/05/03 08:45:52;;;;;;;1.40;1.20;;;24.10;53.40;;;;;;5074963;28;20532;-85
2022/05/03 08:48:28;;;;;;;1.10;1.00;;;24.00;53.30;;;;;;5075230;28;20461;-86
2022/05/03 08:50:55;;;;;;;1.20;1.10;;;24.00;53.30;;;;;;5073759;28;20472;-85
2022/05/03 08:53:22;;;;;;;1.30;1.10;;;24.00;53.30;;;;;;5074433;28;20429;-85
2022/05/03 08:55:50;;;;;;;1.50;0.97;;;24.10;53.40;;;;;;5057939;28;20436;-85
2022/05/03 08:58:19;;;;;;;1.10;0.90;;;24.10;53.40;;;;;;5075260;28;20451;-84
2022/05/03 09:00:47;;;;;;;2.33;0.90;;;24.20;53.50;;;;;;5074789;28;20445;-84
2022/05/03 09:03:15;;;;;;;1.20;1.00;;;24.10;53.40;;;;;;5088088;28;20447;-84
2022/05/03 09:05:42;;;;;;;1.53;1.10;;;24.20;53.50;;;;;;5077915;28;20485;-84
2022/05/03 09:08:12;;;;;;;1.43;1.27;;;24.20;53.40;;;;;;5057567;28;20453;-86
2022/05/03 09:10:41;;;;;;;1.83;1.20;;;24.20;53.50;;;;;;5075820;28;20445;-86
2022/05/03 09:13:18;;;;;;;1.20;0.90;;;24.10;51.40;;;;;;5075061;28;20449;-86
2022/05/03 09:15:50;;;;;;;6.13;1.20;;;24.20;50.30;;;;;;5075567;28;20437;-88
2022/05/03 09:18:22;;;;;;;1.33;1.23;;;24.20;49.80;;;;;;5074932;28;20879;-80
2022/05/03 09:23:49;;;;;;;1.40;0.90;;;24.10;51.40;;;;;;5075287;28;20416;-85
2022/05/03 09:26:18;;;;;;;1.63;1.20;;;24.20;52.30;;;;;;5074956;28;20485;-84
2022/05/03 09:28:47;;;;;;;1.70;1.10;;;24.20;51.50;;;;;;5075273;28;20445;-85
2022/05/03 09:31:28;;;;;;;1.00;0.87;;;24.20;50.70;;;;;;5074970;28;20496;-84
2022/05/03 09:33:56;;;;;;;2.70;1.00;;;24.20;50.20;;;;;;5075279;28;20444;-87
2022/05/03 09:36:23;;;;;;;1.33;1.10;;;24.20;49.80;;;;;;5074820;28;20437;-84
2022/05/03 09:38:52;;;;;;;1.23;1.00;;;24.10;49.70;;;;;;5075158;28;20536;-86
2022/05/03 09:41:19;;;;;;;1.20;1.10;;;24.10;49.60;;;;;;5074873;28;20523;-82
2022/05/03 09:44:02;;;;;;;2.07;0.90;;;24.10;50.10;;;;;;5074053;28;20433;-82
2022/05/03 09:46:30;;;;;;;1.30;1.20;;;24.20;50.50;;;;;;5059752;28;20537;-83
2022/05/03 09:48:57;;;;;;;0.97;0.80;;;24.10;50.10;;;;;;5073770;28;20483;-84
2022/05/03 09:51:24;;;;;;;1.10;1.00;;;24.20;50.50;;;;;;5074990;28;20444;-83
2022/05/03 09:53:58;;;;;;;1.40;1.00;;;24.20;50.70;;;;;;5074483;28;20440;-82
2022/05/03 09:56:28;;;;;;;1.30;1.20;;;24.20;50.60;;;;;;5075073;28;20445;-83
2022/05/03 09:59:01;;;;;;;2.07;1.03;;;24.20;50.30;;;;;;5074731;28;20436;-83
2022/05/03 10:01:28;;;;;;;1.03;0.83;;;24.20;50.00;;;;;;5075259;28;20446;-82
2022/05/03 10:03:57;;;;;;;1.00;0.90;;;24.30;49.80;;;;;;5071113;28;20784;-83
2022/05/03 10:06:24;;;;;;;1.73;1.10;;;24.30;50.00;;;;;;5074041;28;20492;-84
2022/05/03 10:08:52;;;;;;;3.43;0.90;;;24.30;49.90;;;;;;5074282;28;20445;-85
2022/05/03 10:11:21;;;;;;;2.23;1.10;;;24.30;50.20;;;;;;5055933;28;20936;-82
2022/05/03 10:13:48;;;;;;;1.30;1.03;;;24.30;50.70;;;;;;5073697;28;20445;-85
2022/05/03 10:21:56;;;;;;;1.57;0.90;;;24.40;51.10;;;;;;5074177;28;20832;-85
2022/05/03 10:24:26;;;;;;;1.00;0.80;;;24.40;51.20;;;;;;5073735;28;20441;-85
2022/05/03 10:27:01;;;;;;;1.10;0.90;;;24.40;51.00;;;;;;5073867;28;20499;-85
2022/05/03 10:29:29;;;;;;;1.20;1.00;;;24.50;51.20;;;;;;5073660;28;20451;-82
2022/05/03 10:32:00;;;;;;;1.03;0.90;;;24.50;51.10;;;;;;5073398;28;20467;-82
2022/05/03 10:34:56;;;;;;;1.27;0.90;;;24.50;51.10;;;;;;5073570;28;20807;-85
2022/05/03 10:38:05;;;;;;;0.90;0.70;;;24.50;51.10;;;;;;5073834;28;20507;-85
2022/05/03 10:40:34;;;;;;;1.10;0.93;;;24.50;51.10;;;;;;5012752;28;20449;-82
2022/05/03 10:43:06;;;;;;;1.60;1.13;;;24.50;51.00;;;;;;5072656;28;20448;-85
2022/05/03 10:45:52;;;;;;;1.00;0.80;;;24.50;51.10;;;;;;5072662;28;20505;-86
2022/05/03 10:48:37;;;;;;;1.10;1.00;;;24.60;51.10;;;;;;5072072;28;20830;-85
2022/05/03 10:51:06;;;;;;;1.40;0.80;;;24.60;51.00;;;;;;5072951;28;20456;-86
2022/05/03 10:53:34;;;;;;;1.20;0.90;;;24.60;51.00;;;;;;5073365;28;20453;-85
2022/05/03 10:56:10;;;;;;;1.10;0.97;;;24.60;50.80;;;;;;5073124;28;20449;-86
2022/05/03 10:58:38;;;;;;;1.20;1.10;;;24.70;50.80;;;;;;5073147;28;20813;-82
2022/05/03 11:01:08;;;;;;;1.30;1.00;;;24.70;50.90;;;;;;5070769;28;20659;-85
2022/05/03 11:03:36;;;;;;;1.10;0.97;;;24.70;51.10;;;;;;5072886;28;20437;-86
2022/05/03 11:06:37;;;;;;;1.13;1.00;;;24.70;51.00;;;;;;5073780;28;20485;-86
2022/05/03 11:09:13;;;;;;;0.97;0.80;;;24.70;51.10;;;;;;5073261;28;20869;-86
2022/05/03 11:11:57;;;;;;;1.07;0.90;;;24.70;51.10;;;;;;5073632;28;20479;-87
2022/05/03 11:14:47;;;;;;;1.73;1.03;;;24.80;51.10;;;;;;5072634;28;20447;-86
2022/05/03 11:17:14;;;;;;;1.03;0.93;;;24.80;50.90;;;;;;5074180;28;20445;-94
2022/05/03 11:19:49;;;;;;;1.30;1.00;;;24.70;50.90;;;;;;5081775;28;20944;-95
2022/05/03 19:43:48;;;;;;;2.00;1.90;;;24.00;52.80;;;;;;5058775;28;20937;-85
2022/05/03 19:46:15;;;;;;;1.70;1.60;;;23.90;52.90;;;;;;5058939;28;20484;-85
2022/05/03 19:48:42;;;;;;;3.50;1.80;;;23.90;52.90;;;;;;5077222;28;20444;-85
2022/05/03 19:51:09;;;;;;;4.33;2.30;;;24.00;52.80;;;;;;5077022;28;20538;-84
2022/05/03 19:53:36;;;;;;;1.53;1.43;;;24.00;53.00;;;;;;5076998;28;20441;-84
2022/05/03 19:56:03;;;;;;;3.90;1.50;;;24.00;52.90;;;;;;5077134;28;20437;-83
2022/05/03 19:58:29;;;;;;;2.50;2.30;;;24.10;52.90;;;;;;5076881;28;20437;-85
2022/05/03 20:00:58;;;;;;;2.10;1.83;;;24.10;52.90;;;;;;5076611;28;20825;-83
2022/05/03 20:03:25;;;;;;;1.80;1.70;;;24.10;52.90;;;;;;5077111;28;20449;-84
2022/05/03 20:05:56;;;;;;;1.97;1.87;;;24.10;52.90;;;;;;5076894;28;20472;-85
2022/05/03 20:08:27;;;;;;;2.27;2.13;;;24.10;52.80;;;;;;5076891;28;20524;-84
2022/05/03 20:10:54;;;;;;;2.13;1.93;;;24.20;52.90;;;;;;5076889;28;20473;-85
2022/05/03 20:13:21;;;;;;;3.03;1.93;;;24.10;52.80;;;;;;5076472;28;20932;-85
2022/05/03 20:15:47;;;;;;;1.90;1.80;;;24.20;52.90;;;;;;5076670;28;20445;-84
2022/05/03 20:18:16;;;;;;;2.57;2.13;;;24.20;52.90;;;;;;5076767;28;20445;-84
2022/05/03 20:20:42;;;;;;;2.63;1.80;;;24.20;52.90;;;;;;5076635;28;20440;-84
2022/05/03 20:23:09;;;;;;;2.13;1.73;;;24.20;52.90;;;;;;5076242;28;20448;-84
2022/05/03 20:25:37;;;;;;;5.53;1.87;;;24.20;52.90;;;;;;5076394;28;20967;-84
2022/05/03 20:28:04;;;;;;;1.90;1.77;;;24.20;52.90;;;;;;5076405;28;20451;-84
2022/05/03 20:30:32;;;;;;;1.67;1.47;;;24.20;52.90;;;;;;5076602;28;20791;-85
2022/05/03 20:32:58;;;;;;;1.60;1.50;;;24.20;52.90;;;;;;5076227;28;20451;-85
2022/05/03 20:35:27;;;;;;;1.33;1.23;;;24.20;52.90;;;;;;5076421;28;20459;-84
2022/05/03 20:37:53;;;;;;;2.03;1.83;;;24.20;52.90;;;;;;5076038;28;20440;-84
2022/05/03 20:40:20;;;;;;;2.10;2.00;;;24.20;53.00;;;;;;5075783;28;20469;-86
2022/05/03 20:42:47;;;;;;;2.00;1.73;;;24.40;53.10;;;;;;5076274;28;20445;-85
2022/05/03 20:45:14;;;;;;;1.67;1.30;;;24.20;52.90;;;;;;5075895;28;20468;-85
2022/05/03 20:50:43;;;;;;;1.30;1.20;;;24.20;52.90;;;;;;5013841;28;20481;-88
2022/05/03 20:53:10;;;;;;;2.17;1.70;;;24.20;53.00;;;;;;5014178;28;20478;-85
2022/05/03 20:55:37;;;;;;;1.93;1.63;;;24.20;53.00;;;;;;5041781;28;20444;-86
2022/05/03 20:58:06;;;;;;;2.77;1.60;;;24.20;53.00;;;;;;5075919;28;20441;-85
2022/05/03 21:00:33;;;;;;;3.10;1.80;;;24.20;53.00;;;;;;5075607;28;20449;-85
2022/05/03 21:02:59;;;;;;;1.83;1.70;;;24.20;53.00;;;;;;5075841;28;20448;-86
2022/05/03 21:05:26;;;;;;;2.17;1.33;;;24.20;53.00;;;;;;5075887;28;20440;-85
2022/05/03 21:07:54;;;;;;;1.70;1.40;;;24.20;53.00;;;;;;5075400;28;20955;-84
2022/05/03 21:10:21;;;;;;;1.73;1.53;;;24.30;53.10;;;;;;5075515;28;20476;-86
2022/05/03 21:12:48;;;;;;;1.70;1.60;;;24.20;53.00;;;;;;5075559;28;20441;-86
2022/05/03 21:15:15;;;;;;;1.73;1.63;;;24.20;53.00;;;;;;5075549;28;20927;-86
2022/05/03 21:17:42;;;;;;;1.50;1.40;;;24.20;53.00;;;;;;5075513;28;20437;-85
2022/05/03 21:20:10;;;;;;;1.70;1.60;;;24.20;53.10;;;;;;5075302;28;20827;-86
2022/05/03 21:22:37;;;;;;;1.70;1.60;;;24.20;53.10;;;;;;5075299;28;20452;-84
2022/05/03 21:25:09;;;;;;;1.83;1.63;;;24.20;53.00;;;;;;5075408;28;20440;-86
2022/05/03 21:27:36;;;;;;;1.50;1.40;;;24.20;52.90;;;;;;5075600;28;20881;-86
2022/05/03 21:30:03;;;;;;;1.63;1.53;;;24.20;52.90;;;;;;5075227;28;20441;-85
2022/05/03 21:32:29;;;;;;;1.53;1.43;;;24.20;52.90;;;;;;5075949;28;20972;-86
2022/05/03 21:34:56;;;;;;;1.30;1.20;;;24.20;52.90;;;;;;5075269;28;20939;-83
2022/05/03 21:37:25;;;;;;;1.40;1.30;;;24.40;53.10;;;;;;5076703;28;20441;-84
2022/05/03 21:39:52;;;;;;;1.37;1.27;;;24.30;53.00;;;;;;5057761;28;20473;-84
2022/05/03 21:42:20;;;;;;;1.40;1.30;;;24.20;52.90;;;;;;5075029;28;20794;-84
2022/05/03 21:44:47;;;;;;;1.70;1.30;;;24.20;52.80;;;;;;5074996;28;20480;-84
2022/05/03 21:47:13;;;;;;;2.17;1.90;;;24.20;52.80;;;;;;5057069;28;20485;-84
2022/05/03 21:49:40;;;;;;;1.70;1.53;;;24.30;52.90;;;;;;5075020;28;20452;-85
2022/05/03 21:52:08;;;;;;;1.50;1.40;;;24.20;52.70;;;;;;5075361;28;20447;-85
2022/05/03 21:54:34;;;;;;;2.27;1.43;;;24.20;52.70;;;;;;5074925;28;20445;-85
2022/05/03 21:57:01;;;;;;;1.60;1.50;;;24.20;52.70;;;;;;5075199;28;21174;-85
2022/05/03 21:59:29;;;;;;;1.50;1.40;;;24.20;52.70;;;;;;5074358;28;20445;-85